Time;durP1;ratioP1;P1;durP2;ratioP2;P2;SDS_P1;SDS_P2;PMS_P1;PMS_P2;Temp;Humidity;BMP_temperature;BMP_pressure;BME280_temperature;BME280_humidity;BME280_pressure;Samples;Min_cycle;Max_cycle;Signal;HPM_P1;HPM_P2
2022/04/27 00:01:17;;;;;;;1.02;0.60;;;3.80;99.90;;;;;;5031606;28;20065;-69
2022/04/27 00:03:44;;;;;;;0.75;0.57;;;3.80;99.90;;;;;;5031088;28;20049;-64
2022/04/27 00:06:11;;;;;;;1.17;0.77;;;3.70;99.90;;;;;;5026308;28;21401;-66
2022/04/27 00:08:38;;;;;;;3.40;0.95;;;3.70;99.90;;;;;;5031346;28;20067;-70
2022/04/27 00:11:05;;;;;;;0.98;0.60;;;3.70;99.90;;;;;;5030505;28;20791;-68
2022/04/27 00:13:32;;;;;;;1.65;0.88;;;3.70;99.90;;;;;;5031980;28;20102;-65
2022/04/27 00:15:59;;;;;;;1.13;0.68;;;3.70;99.90;;;;;;5028855;28;20056;-68
2022/04/27 00:18:26;;;;;;;3.13;1.10;;;3.70;99.90;;;;;;5020934;28;20079;-68
2022/04/27 00:20:53;;;;;;;1.42;0.95;;;3.70;99.90;;;;;;5024973;28;21304;-65
2022/04/27 00:23:21;;;;;;;2.50;0.60;;;3.70;99.90;;;;;;5028366;28;20049;-70
2022/04/27 00:25:48;;;;;;;3.33;0.70;;;3.70;99.90;;;;;;5031077;28;20515;-63
2022/04/27 00:28:14;;;;;;;2.30;0.75;;;3.60;99.90;;;;;;5021776;28;20144;-67
2022/04/27 00:30:41;;;;;;;0.77;0.60;;;3.60;99.90;;;;;;5023747;28;20145;-69
2022/04/27 00:33:10;;;;;;;3.40;0.98;;;3.60;99.90;;;;;;5009350;28;20045;-69
2022/04/27 00:35:37;;;;;;;3.03;0.93;;;3.60;99.90;;;;;;5030889;28;20049;-68
2022/04/27 00:38:04;;;;;;;1.10;0.45;;;3.60;99.90;;;;;;5026985;28;20571;-69
2022/04/27 00:40:31;;;;;;;2.42;0.95;;;3.60;99.90;;;;;;5009853;28;20072;-67
2022/04/27 00:42:58;;;;;;;2.60;0.80;;;3.50;99.90;;;;;;5028687;28;20053;-66
2022/04/27 00:45:25;;;;;;;1.85;0.95;;;3.50;99.90;;;;;;5029125;28;20049;-70
2022/04/27 00:47:52;;;;;;;4.18;0.98;;;3.50;99.90;;;;;;5020061;28;20061;-66
2022/04/27 00:50:19;;;;;;;3.75;0.98;;;3.50;99.90;;;;;;5029283;28;20045;-68
2022/04/27 00:52:47;;;;;;;2.45;0.60;;;3.50;99.90;;;;;;5024576;28;20048;-69
2022/04/27 00:55:14;;;;;;;0.93;0.85;;;3.50;99.90;;;;;;5029021;28;20098;-69
2022/04/27 00:57:46;;;;;;;0.93;0.77;;;3.40;99.90;;;;;;5022827;28;20065;-67
2022/04/27 01:00:15;;;;;;;1.73;0.80;;;3.40;99.90;;;;;;4997815;28;20053;-68
2022/04/27 01:02:42;;;;;;;1.15;0.70;;;3.40;99.90;;;;;;5024709;28;20041;-64
2022/04/27 01:05:11;;;;;;;2.08;1.10;;;3.30;99.90;;;;;;5031143;28;20249;-67
2022/04/27 01:07:39;;;;;;;1.33;0.93;;;3.30;99.90;;;;;;5043424;28;20126;-67
2022/04/27 01:10:09;;;;;;;1.58;0.80;;;3.30;99.90;;;;;;5030191;28;20489;-69
2022/04/27 01:12:39;;;;;;;1.17;0.68;;;3.30;99.90;;;;;;5034019;28;20697;-66
2022/04/27 01:15:11;;;;;;;6.10;0.77;;;3.30;99.90;;;;;;5030437;28;20052;-65
2022/04/27 01:17:38;;;;;;;1.98;0.50;;;3.20;99.90;;;;;;5027970;28;20049;-66
2022/04/27 01:20:05;;;;;;;1.42;0.82;;;3.20;99.90;;;;;;5001506;28;20140;-70
2022/04/27 01:22:32;;;;;;;2.75;0.90;;;3.20;99.90;;;;;;5048194;28;20069;-68
2022/04/27 01:25:01;;;;;;;1.92;0.77;;;3.10;99.90;;;;;;5012123;28;20120;-65
2022/04/27 01:27:27;;;;;;;1.10;0.95;;;3.10;99.90;;;;;;5027185;28;20151;-68
2022/04/27 01:29:54;;;;;;;1.33;0.70;;;3.10;99.90;;;;;;5011131;28;20177;-66
2022/04/27 01:32:22;;;;;;;0.88;0.50;;;3.00;99.90;;;;;;5035386;28;21022;-71
2022/04/27 01:34:49;;;;;;;3.65;0.82;;;2.90;99.90;;;;;;5038348;28;20053;-66
2022/04/27 01:40:02;;;;;;;0.80;0.70;;;2.90;99.90;;;;;;5037067;28;20068;-70
2022/04/27 01:42:28;;;;;;;2.58;0.80;;;2.90;99.90;;;;;;5044949;28;20048;-68
2022/04/27 01:44:55;;;;;;;2.95;2.00;;;2.80;99.90;;;;;;5034230;28;20137;-67
2022/04/27 01:47:22;;;;;;;3.03;0.70;;;2.80;99.90;;;;;;5018222;28;20092;-66
2022/04/27 01:49:49;;;;;;;2.58;0.73;;;2.70;99.90;;;;;;5035143;28;20045;-68
2022/04/27 01:55:02;;;;;;;3.88;0.80;;;2.70;99.90;;;;;;5038032;28;20055;-66
2022/04/27 01:57:30;;;;;;;1.10;0.65;;;2.60;99.90;;;;;;5015844;28;20066;-68
2022/04/27 01:59:58;;;;;;;1.05;0.70;;;2.60;99.90;;;;;;5016723;28;20053;-65
2022/04/27 02:02:25;;;;;;;1.50;0.80;;;2.50;99.90;;;;;;5014928;28;20052;-68
2022/04/27 02:04:55;;;;;;;4.28;0.77;;;2.50;99.90;;;;;;5020241;28;20115;-64
2022/04/27 02:07:22;;;;;;;2.22;0.90;;;2.40;99.90;;;;;;5020176;28;20044;-68
2022/04/27 02:09:49;;;;;;;1.02;0.88;;;2.40;99.90;;;;;;5021085;28;20064;-65
2022/04/27 02:12:17;;;;;;;1.15;0.88;;;2.30;99.90;;;;;;5011317;28;20052;-65
2022/04/27 02:14:48;;;;;;;1.45;0.77;;;2.30;99.90;;;;;;5017407;28;20130;-67
2022/04/27 02:17:16;;;;;;;3.13;0.70;;;2.20;99.90;;;;;;5018091;28;20125;-65
2022/04/27 02:19:43;;;;;;;1.23;0.80;;;2.10;99.90;;;;;;5018733;28;20045;-67
2022/04/27 02:22:09;;;;;;;1.38;0.70;;;2.10;99.90;;;;;;5025048;28;20071;-68
2022/04/27 02:24:36;;;;;;;6.55;1.45;;;2.00;99.90;;;;;;5025910;28;20619;-65
2022/04/27 02:27:04;;;;;;;3.90;0.85;;;2.00;99.90;;;;;;5033545;28;20103;-65
2022/04/27 02:29:31;;;;;;;1.80;1.08;;;1.90;99.90;;;;;;5044462;28;20134;-69
2022/04/27 02:32:07;;;;;;;5.03;0.90;;;1.90;99.90;;;;;;5042222;28;20056;-65
2022/04/27 02:34:35;;;;;;;2.80;1.00;;;1.80;99.90;;;;;;5014315;28;20151;-64
2022/04/27 02:37:05;;;;;;;1.23;0.80;;;1.80;99.90;;;;;;5014329;28;20056;-65
2022/04/27 02:39:34;;;;;;;1.65;1.00;;;1.80;99.90;;;;;;5013712;28;20235;-66
2022/04/27 02:42:02;;;;;;;1.27;0.70;;;1.80;99.90;;;;;;5013139;28;20106;-66
2022/04/27 02:44:29;;;;;;;1.88;0.80;;;1.80;99.90;;;;;;5026082;28;20149;-67
2022/04/27 02:46:56;;;;;;;1.05;0.63;;;1.80;99.90;;;;;;5015474;28;20738;-68
2022/04/27 02:52:09;;;;;;;1.73;1.13;;;1.80;99.90;;;;;;5046889;28;20171;-66
2022/04/27 02:54:55;;;;;;;2.65;1.20;;;1.80;99.90;;;;;;5034024;28;20079;-67
2022/04/27 02:57:22;;;;;;;3.80;0.93;;;1.80;99.90;;;;;;5031934;28;20051;-69
2022/04/27 02:59:50;;;;;;;1.50;0.60;;;1.80;99.90;;;;;;5048374;28;20539;-69
2022/04/27 03:02:17;;;;;;;1.55;1.45;;;1.80;99.90;;;;;;5010727;28;20044;-65
2022/04/27 03:04:45;;;;;;;1.80;1.00;;;1.90;99.90;;;;;;5029783;28;20411;-66
2022/04/27 03:07:12;;;;;;;2.75;1.08;;;1.90;99.90;;;;;;5047383;28;20045;-68
2022/04/27 03:09:47;;;;;;;4.53;0.90;;;1.90;99.90;;;;;;5016154;28;20957;-67
2022/04/27 03:12:14;;;;;;;5.75;1.42;;;1.90;99.90;;;;;;5047528;28;20150;-67
2022/04/27 03:14:43;;;;;;;5.40;1.30;;;1.90;99.90;;;;;;5044297;28;20049;-69
2022/04/27 03:17:10;;;;;;;4.40;1.48;;;1.90;99.90;;;;;;5042561;28;20048;-66
2022/04/27 03:19:37;;;;;;;2.95;1.40;;;1.80;99.90;;;;;;5012778;28;20068;-67
2022/04/27 03:22:08;;;;;;;1.50;0.88;;;1.80;99.90;;;;;;5043843;28;20065;-69
2022/04/27 03:24:36;;;;;;;3.92;1.25;;;1.80;99.90;;;;;;5016763;28;20123;-66
2022/04/27 03:27:12;;;;;;;4.68;1.05;;;1.80;99.90;;;;;;5014020;28;20049;-66
2022/04/27 03:29:40;;;;;;;4.10;1.42;;;1.80;99.90;;;;;;5014789;28;20134;-68
2022/04/27 03:32:09;;;;;;;5.07;1.25;;;1.80;99.90;;;;;;5003225;28;20053;-69
2022/04/27 03:34:39;;;;;;;4.45;1.25;;;1.70;99.90;;;;;;5047904;28;20080;-68
2022/04/27 03:37:07;;;;;;;2.92;0.90;;;1.70;99.90;;;;;;5047257;28;20228;-66
2022/04/27 03:39:35;;;;;;;3.40;1.15;;;1.70;99.90;;;;;;5028141;28;20045;-65
2022/04/27 03:42:17;;;;;;;4.25;1.38;;;1.70;99.90;;;;;;5010559;28;20474;-65
2022/04/27 03:44:47;;;;;;;2.63;1.42;;;1.60;99.90;;;;;;5017382;28;20191;-65
2022/04/27 03:47:14;;;;;;;3.10;0.77;;;1.60;99.90;;;;;;5046444;28;20045;-66
2022/04/27 03:49:41;;;;;;;4.50;1.35;;;1.60;99.90;;;;;;5031625;28;20052;-65
2022/04/27 03:52:08;;;;;;;2.47;1.10;;;1.60;99.90;;;;;;5013878;28;20052;-66
2022/04/27 03:54:36;;;;;;;7.60;2.08;;;1.60;99.90;;;;;;5014258;28;20098;-66
2022/04/27 03:57:03;;;;;;;3.58;1.45;;;1.60;99.90;;;;;;5045834;28;20065;-66
2022/04/27 03:59:30;;;;;;;4.78;1.63;;;1.60;99.90;;;;;;5031366;28;21409;-67
2022/04/27 04:01:57;;;;;;;6.22;1.15;;;1.60;99.90;;;;;;5012731;28;20139;-63
2022/04/27 04:04:25;;;;;;;6.47;2.35;;;1.60;99.90;;;;;;5024454;28;20096;-66
2022/04/27 04:06:52;;;;;;;3.50;1.13;;;1.60;99.90;;;;;;5012482;28;20053;-67
2022/04/27 04:09:19;;;;;;;6.22;1.48;;;1.70;99.90;;;;;;5034954;28;20131;-64
2022/04/27 04:11:47;;;;;;;3.10;2.28;;;1.70;99.90;;;;;;5019704;28;20049;-63
2022/04/27 04:14:16;;;;;;;5.53;1.35;;;1.80;99.90;;;;;;5027662;28;20428;-66
2022/04/27 04:16:52;;;;;;;3.38;0.98;;;1.80;99.90;;;;;;5014302;28;20045;-65
2022/04/27 04:19:32;;;;;;;5.35;1.33;;;1.80;99.90;;;;;;5046753;28;20507;-65
2022/04/27 04:22:00;;;;;;;5.90;1.02;;;1.80;99.90;;;;;;5024980;28;20054;-69
2022/04/27 04:30:24;;;;;;;6.35;1.55;;;2.00;99.90;;;;;;5037427;28;20152;-70
2022/04/27 04:33:06;;;;;;;9.65;2.00;;;2.10;99.90;;;;;;5026388;28;20094;-70
2022/04/27 04:35:41;;;;;;;4.43;1.30;;;2.10;99.90;;;;;;5027873;28;20053;-69
2022/04/27 04:38:09;;;;;;;5.72;1.40;;;2.20;99.90;;;;;;5004200;28;20115;-65
2022/04/27 04:40:36;;;;;;;11.80;2.28;;;2.20;99.90;;;;;;5015609;28;20053;-65
2022/04/27 04:43:04;;;;;;;9.73;3.17;;;2.30;99.90;;;;;;5013032;28;20073;-70
2022/04/27 04:45:32;;;;;;;5.90;1.05;;;2.40;99.90;;;;;;5024876;28;20052;-67
2022/04/27 04:48:14;;;;;;;8.63;2.17;;;2.40;99.90;;;;;;5011234;28;20579;-67
2022/04/27 04:51:02;;;;;;;4.40;2.13;;;2.50;99.90;;;;;;4997708;28;20076;-68
2022/04/27 04:53:44;;;;;;;7.25;1.55;;;2.60;99.90;;;;;;5004641;28;20044;-67
2022/04/27 04:56:13;;;;;;;6.17;0.97;;;2.70;99.90;;;;;;5025022;28;20053;-64
2022/04/27 04:59:04;;;;;;;5.85;1.40;;;2.70;99.90;;;;;;5023406;28;20711;-65
2022/04/27 05:01:45;;;;;;;6.88;1.63;;;2.90;99.90;;;;;;5013675;28;20049;-65
2022/04/27 05:04:30;;;;;;;4.30;1.23;;;3.00;99.90;;;;;;5005536;28;20470;-68
2022/04/27 05:07:18;;;;;;;2.20;1.00;;;3.10;99.90;;;;;;5026474;28;20095;-65
2022/04/27 05:10:05;;;;;;;10.32;1.70;;;3.20;99.90;;;;;;5023944;28;20056;-67
2022/04/27 05:13:02;;;;;;;4.72;1.05;;;3.30;99.90;;;;;;5002167;28;20049;-64
2022/04/27 05:15:58;;;;;;;6.55;1.67;;;3.50;99.90;;;;;;4994421;28;20545;-65
2022/04/27 05:18:54;;;;;;;2.80;1.25;;;3.60;99.90;;;;;;4971591;28;20046;-68
2022/04/27 05:21:36;;;;;;;3.35;0.50;;;3.70;99.90;;;;;;5042863;28;20143;-68
2022/04/27 05:24:25;;;;;;;4.05;0.73;;;3.80;99.90;;;;;;5006576;28;20108;-67
2022/04/27 05:27:30;;;;;;;3.15;0.68;;;3.90;99.90;;;;;;4981835;28;20049;-65
2022/04/27 05:33:39;;;;;;;2.83;0.90;;;4.20;99.90;;;;;;4965359;28;20072;-63
2022/04/27 05:36:20;;;;;;;1.15;0.90;;;4.30;99.90;;;;;;5015982;28;20049;-65
2022/04/27 05:39:13;;;;;;;1.85;0.45;;;4.40;99.90;;;;;;5003376;28;20495;-68
2022/04/27 05:41:51;;;;;;;3.28;0.73;;;4.40;99.90;;;;;;5008774;28;20044;-65
2022/04/27 05:44:44;;;;;;;2.28;1.23;;;4.50;99.90;;;;;;5029174;28;20052;-66
2022/04/27 05:47:23;;;;;;;3.30;0.65;;;4.50;99.90;;;;;;5041134;28;20084;-65
2022/04/27 05:50:13;;;;;;;2.47;0.65;;;4.60;99.90;;;;;;5009316;28;20321;-64
2022/04/27 05:52:58;;;;;;;4.50;1.55;;;4.70;99.90;;;;;;5020060;28;20059;-66
2022/04/27 05:56:00;;;;;;;1.52;0.88;;;4.70;99.90;;;;;;5016848;28;20816;-64
2022/04/27 05:58:46;;;;;;;5.97;0.90;;;4.80;99.90;;;;;;5036406;28;20174;-68
2022/04/27 06:01:25;;;;;;;1.17;0.82;;;4.80;99.90;;;;;;5005957;28;20140;-64
2022/04/27 06:04:05;;;;;;;1.08;0.85;;;4.90;99.90;;;;;;5008721;28;20055;-66
2022/04/27 06:06:39;;;;;;;7.03;0.85;;;5.00;99.90;;;;;;5003159;28;21965;-66
2022/04/27 06:09:08;;;;;;;3.70;0.85;;;5.10;99.90;;;;;;5050358;28;21174;-66
2022/04/27 06:11:51;;;;;;;1.75;0.98;;;5.10;99.90;;;;;;5011839;28;20210;-65
2022/04/27 06:14:30;;;;;;;3.20;0.57;;;5.20;99.50;;;;;;5037006;28;20049;-67
2022/04/27 06:16:59;;;;;;;3.70;2.05;;;5.30;96.70;;;;;;5053278;28;20045;-65
2022/04/27 06:19:26;;;;;;;2.53;1.48;;;5.40;96.00;;;;;;5019806;28;20033;-66
2022/04/27 06:21:54;;;;;;;3.67;1.60;;;5.40;94.60;;;;;;5015303;28;20088;-69
2022/04/27 06:24:22;;;;;;;2.75;1.52;;;5.50;94.00;;;;;;5043727;28;20048;-66
2022/04/27 06:26:54;;;;;;;2.15;1.00;;;5.60;94.10;;;;;;5014186;28;20336;-68
2022/04/27 06:29:21;;;;;;;1.15;0.80;;;5.70;92.40;;;;;;5006839;28;20054;-66
2022/04/27 06:31:50;;;;;;;3.63;1.00;;;5.70;92.40;;;;;;5043805;28;20057;-64
2022/04/27 06:34:18;;;;;;;2.40;0.75;;;5.80;92.50;;;;;;5011000;28;20060;-69
2022/04/27 06:36:45;;;;;;;1.45;0.90;;;5.90;92.40;;;;;;5045931;28;20044;-63
2022/04/27 06:39:26;;;;;;;2.35;0.60;;;5.90;91.40;;;;;;5009345;28;20118;-66
2022/04/27 06:41:53;;;;;;;3.40;0.65;;;6.00;90.70;;;;;;5031121;28;20048;-67
2022/04/27 06:44:29;;;;;;;3.90;0.60;;;6.00;91.10;;;;;;5027565;28;20182;-64
2022/04/27 06:47:15;;;;;;;1.08;1.00;;;6.00;90.80;;;;;;5028653;28;20371;-65
2022/04/27 06:50:00;;;;;;;2.28;0.38;;;6.10;91.70;;;;;;5032896;28;20766;-64
2022/04/27 06:52:46;;;;;;;1.98;0.68;;;6.10;90.60;;;;;;5031343;28;20052;-65
2022/04/27 06:55:33;;;;;;;0.43;0.38;;;6.00;89.20;;;;;;5031786;28;20052;-70
2022/04/27 06:58:00;;;;;;;0.65;0.38;;;6.20;90.60;;;;;;5029073;28;20139;-64
2022/04/27 07:00:27;;;;;;;2.30;1.42;;;6.20;89.70;;;;;;5004373;28;20386;-66
2022/04/27 07:02:55;;;;;;;1.35;0.73;;;6.20;88.70;;;;;;5006918;28;20053;-69
2022/04/27 07:05:25;;;;;;;4.05;0.80;;;6.30;87.00;;;;;;5024127;28;20064;-69
2022/04/27 07:07:52;;;;;;;3.57;0.53;;;6.30;86.60;;;;;;5006596;28;20219;-67
2022/04/27 07:10:19;;;;;;;4.97;0.70;;;6.20;89.60;;;;;;5022652;28;20099;-68
2022/04/27 07:12:47;;;;;;;1.15;0.60;;;6.30;87.60;;;;;;5033883;28;20049;-66
2022/04/27 07:15:14;;;;;;;1.38;0.85;;;6.30;87.50;;;;;;5035611;28;20745;-66
2022/04/27 07:17:41;;;;;;;1.13;0.70;;;6.40;90.40;;;;;;5032228;28;20053;-64
2022/04/27 07:20:09;;;;;;;4.25;0.85;;;6.30;88.60;;;;;;5033712;28;21164;-64
2022/04/27 07:22:37;;;;;;;2.38;0.50;;;6.30;97.00;;;;;;5028387;28;22001;-64
2022/04/27 07:25:04;;;;;;;1.10;0.68;;;6.10;99.40;;;;;;5026535;28;20144;-67
2022/04/27 07:27:31;;;;;;;3.47;0.80;;;6.10;99.90;;;;;;5034244;28;20375;-65
2022/04/27 07:29:59;;;;;;;1.70;0.88;;;5.90;99.90;;;;;;5034543;28;20480;-69
2022/04/27 07:32:26;;;;;;;3.05;1.30;;;5.90;99.90;;;;;;5030230;28;20184;-67
2022/04/27 07:34:52;;;;;;;0.65;0.60;;;5.90;99.90;;;;;;5033710;28;20045;-66
2022/04/27 07:37:19;;;;;;;3.20;0.68;;;5.90;99.90;;;;;;5035023;28;20043;-66
2022/04/27 07:39:46;;;;;;;3.45;0.75;;;5.90;99.90;;;;;;5033497;28;20053;-69
2022/04/27 07:42:13;;;;;;;1.77;1.33;;;5.90;99.90;;;;;;5033868;28;20140;-64
2022/04/27 07:44:40;;;;;;;3.05;1.00;;;5.80;99.90;;;;;;5034320;28;20150;-65
2022/04/27 07:47:08;;;;;;;2.05;0.88;;;5.90;99.90;;;;;;5033763;28;20692;-68
2022/04/27 07:49:35;;;;;;;115.95;16.98;;;5.80;99.90;;;;;;5010443;28;20569;-66
2022/04/27 07:52:03;;;;;;;74.70;12.32;;;5.80;99.90;;;;;;5035067;28;20554;-68
2022/04/27 07:54:30;;;;;;;45.25;5.65;;;5.80;99.90;;;;;;5031692;28;20099;-68
2022/04/27 07:56:57;;;;;;;632.20;100.80;;;5.70;99.90;;;;;;5034070;28;20057;-67
2022/04/27 07:59:25;;;;;;;31.67;5.07;;;5.80;99.90;;;;;;5034109;28;20064;-66
2022/04/27 08:01:52;;;;;;;31.70;6.47;;;5.90;99.90;;;;;;5026902;28;20168;-64
2022/04/27 08:04:19;;;;;;;19.48;2.40;;;5.80;99.90;;;;;;5021953;28;20045;-66
2022/04/27 08:06:46;;;;;;;146.68;19.58;;;5.90;99.90;;;;;;5025525;28;20127;-68
2022/04/27 08:09:13;;;;;;;13.85;3.75;;;5.80;99.90;;;;;;5026294;28;20098;-64
2022/04/27 08:11:41;;;;;;;5.68;2.67;;;5.80;99.90;;;;;;5028234;28;20048;-67
2022/04/27 08:14:08;;;;;;;2.35;1.95;;;5.80;99.90;;;;;;5024804;28;20172;-67
2022/04/27 08:16:35;;;;;;;3.10;0.93;;;5.70;99.90;;;;;;5026200;28;20171;-67
2022/04/27 08:19:02;;;;;;;2.20;0.90;;;5.80;99.90;;;;;;5026346;28;20095;-68
2022/04/27 08:21:29;;;;;;;3.60;0.60;;;5.90;99.90;;;;;;5024900;28;20056;-65
2022/04/27 08:23:56;;;;;;;1.35;0.75;;;5.90;99.90;;;;;;5031854;28;20059;-67
2022/04/27 08:26:23;;;;;;;2.80;1.17;;;5.80;99.90;;;;;;5032709;28;20156;-65
2022/04/27 08:28:49;;;;;;;8.98;1.40;;;5.90;99.90;;;;;;5034494;28;21728;-65
2022/04/27 08:31:18;;;;;;;1.40;0.60;;;5.90;99.90;;;;;;5033186;28;20634;-68
2022/04/27 08:33:46;;;;;;;1.23;0.80;;;6.00;99.90;;;;;;5032632;28;20606;-66
2022/04/27 08:36:13;;;;;;;5.40;1.13;;;6.00;99.90;;;;;;5028007;28;20134;-71
2022/04/27 08:38:57;;;;;;;1.38;0.60;;;6.00;99.90;;;;;;5034428;28;20049;-68
2022/04/27 08:41:26;;;;;;;4.30;0.98;;;6.20;99.90;;;;;;5034297;28;20358;-67
2022/04/27 08:43:53;;;;;;;1.48;0.75;;;6.30;99.90;;;;;;5032925;28;20053;-65
2022/04/27 08:46:20;;;;;;;5.07;0.95;;;6.30;99.90;;;;;;5031855;28;20132;-67
2022/04/27 08:48:48;;;;;;;1.05;0.45;;;6.10;99.90;;;;;;5034825;28;20668;-70
2022/04/27 08:51:16;;;;;;;7.13;0.75;;;6.00;99.90;;;;;;5028905;28;20045;-69
2022/04/27 08:53:44;;;;;;;2.92;1.60;;;6.10;99.90;;;;;;5035107;28;20055;-69
2022/04/27 08:56:13;;;;;;;2.40;0.40;;;6.30;99.90;;;;;;5032872;28;20136;-65
2022/04/27 08:58:40;;;;;;;2.47;0.98;;;6.30;99.90;;;;;;5033123;28;20049;-66
2022/04/27 09:01:09;;;;;;;4.60;0.75;;;6.10;99.90;;;;;;5028125;28;20063;-70
2022/04/27 09:03:38;;;;;;;0.75;0.63;;;5.90;99.90;;;;;;5027284;28;20819;-67
2022/04/27 09:06:07;;;;;;;2.10;0.73;;;5.90;99.90;;;;;;5017996;28;20433;-67
2022/04/27 09:08:55;;;;;;;1.40;0.47;;;5.70;99.90;;;;;;5028489;28;21122;-64
2022/04/27 09:11:28;;;;;;;10.98;0.88;;;5.70;99.90;;;;;;5033723;28;20140;-67
2022/04/27 09:13:56;;;;;;;3.40;0.77;;;5.90;99.90;;;;;;5034373;28;20045;-65
2022/04/27 09:16:25;;;;;;;2.45;0.70;;;6.10;99.90;;;;;;5030766;28;20526;-69
2022/04/27 09:22:04;;;;;;;3.17;0.60;;;6.10;99.90;;;;;;4969788;28;20157;-67
2022/04/27 09:24:51;;;;;;;1.77;1.13;;;6.00;99.90;;;;;;5013902;28;20053;-64
2022/04/27 09:27:23;;;;;;;0.88;0.60;;;6.00;99.90;;;;;;5024197;28;20045;-70
2022/04/27 09:30:07;;;;;;;2.55;0.85;;;6.20;99.90;;;;;;5026440;28;20068;-69
2022/04/27 09:32:34;;;;;;;7.20;2.42;;;6.20;99.90;;;;;;5026253;28;20954;-63
2022/04/27 09:35:03;;;;;;;2.40;0.75;;;6.20;99.90;;;;;;5024728;28;20154;-65
2022/04/27 09:37:38;;;;;;;2.33;0.50;;;6.10;99.90;;;;;;5033319;28;20537;-66
2022/04/27 09:40:11;;;;;;;0.63;0.55;;;6.10;99.90;;;;;;5027486;28;20103;-68
2022/04/27 09:42:45;;;;;;;2.67;0.90;;;6.10;99.90;;;;;;5033757;28;20689;-68
2022/04/27 09:45:20;;;;;;;4.15;1.20;;;6.20;99.90;;;;;;5032748;28;20061;-66
2022/04/27 09:47:53;;;;;;;1.33;0.68;;;6.20;99.90;;;;;;5015026;28;20817;-67
2022/04/27 09:50:21;;;;;;;2.95;0.75;;;6.30;99.90;;;;;;5031730;28;20043;-65
2022/04/27 09:52:48;;;;;;;2.80;1.15;;;6.10;99.90;;;;;;5033733;28;20142;-66
2022/04/27 09:55:15;;;;;;;3.75;1.30;;;6.20;99.90;;;;;;5029533;28;20159;-67
2022/04/27 09:57:54;;;;;;;1.60;1.13;;;6.30;99.90;;;;;;5033688;28;20144;-65
2022/04/27 10:00:23;;;;;;;1.35;0.47;;;6.40;99.90;;;;;;5027435;28;20045;-63
2022/04/27 10:02:52;;;;;;;1.92;0.70;;;6.40;99.90;;;;;;5025613;28;20487;-68
2022/04/27 10:05:21;;;;;;;1.38;0.95;;;6.50;99.90;;;;;;5024664;28;20107;-65
2022/04/27 10:07:51;;;;;;;3.17;0.70;;;6.60;99.90;;;;;;5025033;28;20060;-69
2022/04/27 10:10:18;;;;;;;0.80;0.47;;;6.70;99.90;;;;;;5023847;28;20227;-66
2022/04/27 10:12:48;;;;;;;1.73;0.80;;;6.60;99.90;;;;;;5022310;28;20408;-68
2022/04/27 10:15:15;;;;;;;5.50;0.82;;;6.60;99.90;;;;;;5025062;28;20053;-70
2022/04/27 10:17:42;;;;;;;0.95;0.75;;;6.60;99.90;;;;;;5027003;28;20123;-66
2022/04/27 10:20:31;;;;;;;1.35;1.10;;;6.70;99.90;;;;;;5023081;28;20044;-70
2022/04/27 10:23:31;;;;;;;1.67;0.45;;;6.60;99.90;;;;;;5026213;28;20089;-66
2022/04/27 10:26:17;;;;;;;1.27;0.38;;;6.60;99.90;;;;;;5024635;28;20130;-66
2022/04/27 10:28:49;;;;;;;0.93;0.50;;;6.50;99.90;;;;;;5020786;28;20049;-66
2022/04/27 10:31:42;;;;;;;1.30;0.60;;;6.40;99.90;;;;;;5030071;28;20134;-64
2022/04/27 10:34:24;;;;;;;2.55;0.60;;;6.60;99.90;;;;;;5030475;28;20171;-68
2022/04/27 10:36:52;;;;;;;1.95;0.77;;;6.60;99.90;;;;;;5031060;28;20474;-68
2022/04/27 10:39:24;;;;;;;5.50;1.75;;;6.40;99.90;;;;;;5032658;28;20379;-65
2022/04/27 10:41:55;;;;;;;1.77;0.70;;;6.40;99.90;;;;;;5030726;28;20184;-64
2022/04/27 10:44:51;;;;;;;1.52;0.73;;;6.50;99.90;;;;;;5027408;28;20045;-65
2022/04/27 10:47:19;;;;;;;4.72;0.88;;;6.50;99.90;;;;;;5034253;28;20788;-69
2022/04/27 10:49:49;;;;;;;1.83;0.50;;;6.40;99.90;;;;;;5035361;28;20148;-64
2022/04/27 10:52:15;;;;;;;1.17;0.60;;;6.70;99.90;;;;;;5034556;28;20133;-69
2022/04/27 10:54:42;;;;;;;1.48;0.60;;;6.80;99.90;;;;;;5036337;28;20049;-68
2022/04/27 10:57:15;;;;;;;5.13;0.90;;;7.00;99.90;;;;;;5035128;28;20651;-68
2022/04/27 10:59:43;;;;;;;5.13;0.60;;;7.10;99.90;;;;;;5029541;28;20044;-69
2022/04/27 11:02:42;;;;;;;1.73;0.60;;;6.80;99.90;;;;;;5021863;28;20045;-68
2022/04/27 11:05:12;;;;;;;2.25;0.90;;;6.60;99.90;;;;;;5002748;28;20045;-69
2022/04/27 11:07:56;;;;;;;4.47;0.43;;;6.80;99.90;;;;;;5026098;28;20047;-67
2022/04/27 11:10:24;;;;;;;4.45;1.25;;;6.90;99.90;;;;;;5011052;28;20058;-66
2022/04/27 11:12:56;;;;;;;0.68;0.40;;;7.10;99.90;;;;;;5029980;28;20041;-69
2022/04/27 11:15:27;;;;;;;2.05;0.80;;;6.90;99.90;;;;;;5027248;28;20525;-69
2022/04/27 11:18:02;;;;;;;4.85;1.30;;;7.00;99.90;;;;;;5008371;28;20056;-63
2022/04/27 11:20:32;;;;;;;4.45;0.82;;;6.90;99.90;;;;;;5024629;28;20057;-70
2022/04/27 11:23:03;;;;;;;1.98;1.15;;;6.80;99.90;;;;;;5025724;28;20726;-66
2022/04/27 11:25:31;;;;;;;;;;;6.70;99.90;;;;;;5025327;28;20159;-68
2022/04/27 11:27:59;;;;;;;1.92;0.65;;;6.80;99.90;;;;;;5027829;28;19928;-67
2022/04/27 11:30:28;;;;;;;0.40;0.40;;;6.70;99.90;;;;;;5024482;28;20164;-71
2022/04/27 11:32:56;;;;;;;1.10;0.57;;;7.00;99.90;;;;;;5011498;28;20041;-66
2022/04/27 11:35:24;;;;;;;0.60;0.60;;;7.00;99.90;;;;;;5030797;28;20065;-64
2022/04/27 11:37:53;;;;;;;3.42;0.73;;;7.00;99.90;;;;;;5033512;28;20049;-65
2022/04/27 11:40:25;;;;;;;2.15;0.75;;;6.80;99.90;;;;;;5030317;28;21183;-69
2022/04/27 11:42:52;;;;;;;1.73;0.70;;;7.10;99.90;;;;;;5033165;28;20135;-68
2022/04/27 11:45:21;;;;;;;3.20;0.63;;;7.30;99.90;;;;;;5032157;28;20127;-67
2022/04/27 11:48:03;;;;;;;1.95;0.45;;;7.10;99.90;;;;;;5029562;28;20096;-71
2022/04/27 11:50:32;;;;;;;0.75;0.75;;;6.90;99.90;;;;;;5030232;28;20053;-70
2022/04/27 11:53:02;;;;;;;0.75;0.63;;;6.90;99.90;;;;;;5033308;28;20103;-70
2022/04/27 11:55:31;;;;;;;0.88;0.40;;;6.80;99.90;;;;;;5029822;28;20045;-67
2022/04/27 11:57:58;;;;;;;2.58;0.98;;;7.00;99.90;;;;;;5030711;28;20242;-66
2022/04/27 12:00:28;;;;;;;1.73;0.95;;;7.20;99.90;;;;;;5027586;28;20055;-65
2022/04/27 12:03:06;;;;;;;2.65;0.80;;;7.30;99.90;;;;;;5026275;28;20056;-64
2022/04/27 12:05:36;;;;;;;5.00;1.40;;;7.20;99.90;;;;;;5029771;28;20045;-70
2022/04/27 12:08:11;;;;;;;2.75;0.60;;;7.10;99.90;;;;;;5032905;28;20756;-65
2022/04/27 12:10:39;;;;;;;2.08;0.55;;;7.10;99.90;;;;;;5031980;28;20212;-66
2022/04/27 12:13:06;;;;;;;1.25;0.43;;;6.90;99.90;;;;;;5030654;28;20454;-67
2022/04/27 12:15:33;;;;;;;1.08;0.65;;;7.00;99.90;;;;;;5030475;28;20055;-66
2022/04/27 12:18:03;;;;;;;2.08;0.75;;;7.10;99.90;;;;;;5030234;28;20053;-64
2022/04/27 12:20:40;;;;;;;1.27;0.80;;;7.10;99.90;;;;;;5023173;28;20915;-66
2022/04/27 12:23:23;;;;;;;2.58;1.00;;;7.00;99.90;;;;;;5029771;28;20873;-68
2022/04/27 12:25:56;;;;;;;0.57;0.57;;;7.00;99.90;;;;;;5029562;28;20124;-70
2022/04/27 12:28:24;;;;;;;0.47;0.47;;;7.10;99.90;;;;;;5027902;28;20107;-70
2022/04/27 12:31:02;;;;;;;1.27;0.70;;;7.00;99.90;;;;;;5029420;28;20840;-71
2022/04/27 12:33:34;;;;;;;3.08;0.57;;;7.30;99.90;;;;;;5030484;28;20037;-71
2022/04/27 12:39:07;;;;;;;1.48;0.70;;;7.50;99.90;;;;;;5031021;28;20501;-67
2022/04/27 12:41:46;;;;;;;0.95;0.60;;;7.60;99.90;;;;;;5025313;28;20083;-64
2022/04/27 12:44:24;;;;;;;1.48;0.77;;;7.70;99.90;;;;;;5030258;28;20647;-69
2022/04/27 12:47:05;;;;;;;1.38;0.52;;;7.60;99.90;;;;;;5031725;28;20098;-64
2022/04/27 12:49:39;;;;;;;1.27;0.70;;;7.60;99.90;;;;;;5031554;28;20134;-67
2022/04/27 12:52:21;;;;;;;1.10;0.80;;;7.50;99.90;;;;;;5025388;28;20154;-67
2022/04/27 12:54:52;;;;;;;2.70;0.55;;;7.80;99.90;;;;;;5030282;28;20110;-68
2022/04/27 12:57:19;;;;;;;0.80;0.50;;;7.90;99.90;;;;;;5029186;28;20135;-68
2022/04/27 13:00:00;;;;;;;10.38;1.13;;;7.90;99.90;;;;;;5030306;28;20144;-66
2022/04/27 13:02:27;;;;;;;2.20;0.73;;;8.00;99.90;;;;;;5029402;28;20048;-67
2022/04/27 13:04:55;;;;;;;1.85;0.60;;;7.60;99.90;;;;;;5030653;28;20048;-65
2022/04/27 13:07:22;;;;;;;1.88;0.60;;;7.80;99.90;;;;;;5026781;28;20159;-67
2022/04/27 13:12:36;;;;;;;1.27;0.47;;;8.00;99.90;;;;;;5040519;28;21229;-67
2022/04/27 13:15:04;;;;;;;1.60;0.73;;;7.80;99.90;;;;;;5029056;28;20487;-67
2022/04/27 13:17:31;;;;;;;3.47;0.60;;;7.80;99.90;;;;;;5030330;28;20234;-64
2022/04/27 13:19:59;;;;;;;2.15;0.80;;;7.80;99.90;;;;;;5021635;28;20064;-66
2022/04/27 13:22:26;;;;;;;2.70;0.75;;;8.00;99.90;;;;;;5027949;28;20060;-67
2022/04/27 13:24:59;;;;;;;;;;;8.10;99.90;;;;;;5028636;28;20041;-66
2022/04/27 13:27:26;;;;;;;3.45;0.75;;;8.30;99.90;;;;;;5029222;28;20268;-67
2022/04/27 13:29:54;;;;;;;1.95;1.08;;;8.20;99.90;;;;;;5027724;28;20060;-66
2022/04/27 13:32:23;;;;;;;0.80;0.45;;;8.30;99.90;;;;;;5031081;28;20139;-69
2022/04/27 13:34:51;;;;;;;0.98;0.70;;;8.20;99.90;;;;;;5030840;28;20506;-67
2022/04/27 13:37:23;;;;;;;0.80;0.47;;;8.40;99.80;;;;;;5031350;28;20039;-67
2022/04/27 13:39:50;;;;;;;1.35;1.00;;;8.50;98.60;;;;;;5029725;28;20044;-70
2022/04/27 13:42:17;;;;;;;2.40;1.13;;;8.60;98.60;;;;;;5027290;28;20140;-74
2022/04/27 13:44:44;;;;;;;5.35;1.02;;;8.80;98.90;;;;;;5027737;28;20168;-67
2022/04/27 13:47:10;;;;;;;0.60;0.52;;;9.00;96.40;;;;;;5028412;28;20052;-66